Time;durP1;ratioP1;P1;durP2;ratioP2;P2;SDS_P1;SDS_P2;PMS_P1;PMS_P2;Temp;Humidity;BMP_temperature;BMP_pressure;BME280_temperature;BME280_humidity;BME280_pressure;Samples;Min_cycle;Max_cycle;Signal;HPM_P1;HPM_P2
2021/05/24 00:01:08;;;;;;;6.67;5.40;;;;;;;19.28;58.02;94689.50;834633;71;29705;-78
2021/05/24 00:16:14;;;;;;;5.70;5.20;;;;;;;19.20;57.78;94687.73;833786;71;32628;-77
2021/05/24 00:31:13;;;;;;;8.80;4.60;;;;;;;19.14;57.89;94698.39;828223;71;32647;-78
2021/05/24 00:46:09;;;;;;;4.95;4.55;;;;;;;18.83;58.48;94741.00;828287;71;29690;-76
2021/05/24 01:01:10;;;;;;;6.95;5.40;;;;;;;18.80;58.64;94761.62;834033;71;30765;-77
2021/05/24 01:16:16;;;;;;;5.65;5.15;;;;;;;18.64;59.90;94772.67;827419;71;32957;-77
2021/05/24 01:31:28;;;;;;;5.17;4.67;;;;;;;18.54;60.25;94779.19;824385;71;32690;-77
2021/05/24 01:46:18;;;;;;;4.67;4.20;;;;;;;18.44;59.83;94788.92;827598;71;33172;-77
2021/05/24 02:01:12;;;;;;;6.60;4.20;;;;;;;18.30;57.80;94806.48;828287;71;30345;-76
2021/05/24 02:16:10;;;;;;;4.85;3.98;;;;;;;18.34;56.57;94814.80;829731;71;29796;-77
2021/05/24 02:31:08;;;;;;;4.17;3.75;;;;;;;18.39;56.40;94833.77;834013;71;30177;-75
2021/05/24 02:46:08;;;;;;;4.65;3.62;;;;;;;18.37;56.66;94861.18;830041;70;29788;-79
2021/05/24 03:01:53;;;;;;;5.92;3.20;;;;;;;18.31;57.76;94881.09;834011;71;30289;-77
2021/05/24 03:16:14;;;;;;;6.90;4.50;;;;;;;18.29;58.72;94886.75;827685;71;32848;-78
2021/05/24 03:31:14;;;;;;;4.55;3.98;;;;;;;18.93;57.70;94908.08;827435;71;32859;-75
2021/05/24 03:46:09;;;;;;;4.03;3.52;;;;;;;19.84;55.60;94928.41;828337;71;29691;-77
2021/05/24 04:01:16;;;;;;;4.78;3.75;;;;;;;21.05;52.93;94930.73;822928;70;33238;-78
2021/05/24 04:16:15;;;;;;;5.05;3.85;;;;;;;22.29;50.17;94965.45;819525;70;31723;-78
2021/05/24 04:31:15;;;;;;;4.10;3.55;;;;;;;22.85;48.62;94990.22;833812;71;32133;-77
2021/05/24 04:46:14;;;;;;;3.13;2.83;;;;;;;23.76;46.60;95018.20;806406;71;31866;-77
2021/05/24 05:01:09;;;;;;;3.43;3.13;;;;;;;24.47;45.29;95021.73;828469;71;29229;-76
2021/05/24 05:16:08;;;;;;;3.60;2.83;;;;;;;24.86;43.99;95046.41;834095;71;29160;-78
2021/05/24 05:31:16;;;;;;;4.13;2.73;;;;;;;24.96;44.13;95072.61;834581;71;31720;-79
2021/05/24 05:46:18;;;;;;;4.27;3.43;;;;;;;24.90;44.44;95090.19;835712;71;31688;-75
2021/05/24 06:01:08;;;;;;;3.00;2.80;;;;;;;25.70;44.05;95097.20;834291;71;28775;-76
2021/05/24 06:16:15;;;;;;;4.90;3.20;;;;;;;26.03;42.52;95079.45;827857;71;31722;-78
2021/05/24 06:31:09;;;;;;;4.80;3.70;;;;;;;26.98;40.49;95081.77;834310;71;29183;-77
2021/05/24 06:46:08;;;;;;;3.37;3.13;;;;;;;28.42;37.48;95080.05;829274;71;28632;-78
2021/05/24 07:01:08;;;;;;;3.30;3.10;;;;;;;29.56;35.46;95076.76;828474;71;28667;-75
2021/05/24 07:16:09;;;;;;;2.93;2.73;;;;;;;30.60;33.74;95060.27;834180;71;29268;-77
2021/05/24 07:31:09;;;;;;;2.83;2.63;;;;;;;31.34;32.43;95080.32;828213;71;29190;-78
2021/05/24 07:46:12;;;;;;;3.00;2.47;;;;;;;32.25;30.82;95084.64;834020;71;30730;-75
2021/05/24 08:01:18;;;;;;;3.73;3.00;;;;;;;32.99;29.73;95074.77;827597;71;31707;-76
2021/05/24 08:16:16;;;;;;;4.90;3.87;;;;;;;33.59;28.90;95082.28;828344;71;30785;-78
2021/05/24 08:31:10;;;;;;;4.57;3.97;;;;;;;33.32;28.85;95073.72;828563;71;29153;-76
2021/05/24 08:46:14;;;;;;;3.77;3.47;;;;;;;32.84;28.94;95053.91;834168;71;31694;-79
2021/05/24 09:01:57;;;;;;;4.50;3.20;;;;;;;31.99;29.27;95039.28;827608;71;31828;-77
2021/05/24 09:16:18;;;;;;;3.33;2.97;;;;;;;32.07;29.19;95002.70;827903;71;31745;-76
2021/05/24 09:31:22;;;;;;;4.30;3.77;;;;;;;31.81;30.37;95013.78;828207;71;29251;-78
2021/05/24 09:46:18;;;;;;;7.00;4.10;;;;;;;31.26;29.65;95001.59;828640;71;31673;-79
2021/05/24 10:01:18;;;;;;;4.47;4.07;;;;;;;31.05;30.76;94996.48;833944;71;31466;-77
2021/05/24 10:16:12;;;;;;;3.90;3.30;;;;;;;31.86;29.30;94980.15;828568;71;28624;-78
2021/05/24 10:31:24;;;;;;;4.23;3.73;;;;;;;31.13;29.55;94973.52;828480;71;29583;-74
2021/05/24 10:46:29;;;;;;;4.80;4.00;;;;;;;31.60;29.43;94960.03;834208;71;27635;-79
2021/05/24 11:01:17;;;;;;;4.43;3.73;;;;;;;32.71;26.91;94947.16;827679;71;30773;-78
2021/05/24 11:16:14;;;;;;;4.40;4.00;;;;;;;32.99;25.94;94953.76;828178;71;28200;-77
2021/05/24 11:31:17;;;;;;;3.70;3.33;;;;;;;32.96;24.91;94939.06;834128;71;30775;-76
2021/05/24 11:46:10;;;;;;;5.37;4.00;;;;;;;33.02;25.50;94916.97;828485;71;27774;-79
2021/05/24 12:01:16;;;;;;;4.40;4.00;;;;;;;30.68;28.07;94905.37;827608;71;31696;-77
2021/05/24 12:16:15;;;;;;;4.00;3.40;;;;;;;30.50;28.43;94903.48;827387;71;33213;-74
2021/05/24 12:31:14;;;;;;;4.30;3.90;;;;;;;30.89;28.28;94878.57;835254;71;30577;-78
2021/05/24 12:46:09;;;;;;;5.60;4.23;;;;;;;31.20;28.40;94877.72;828335;71;28333;-76
2021/05/24 13:01:33;;;;;;;4.30;3.93;;;;;;;31.35;28.31;94869.54;834597;71;32209;-78
2021/05/24 13:16:27;;;;;;;4.47;3.90;;;;;;;31.61;27.74;94843.54;827543;71;32707;-74
2021/05/24 13:31:17;;;;;;;5.63;4.40;;;;;;;31.32;28.22;94832.38;833792;71;31736;-77
2021/05/24 13:46:16;;;;;;;5.80;5.20;;;;;;;31.11;28.08;94821.31;835895;71;32854;-79
2021/05/24 14:01:10;;;;;;;6.63;4.57;;;;;;;30.65;28.85;94809.98;834208;71;30321;-75
2021/05/24 14:16:13;;;;;;;9.80;4.47;;;;;;;29.79;29.55;94802.22;828422;71;29821;-77
2021/05/24 14:31:10;;;;;;;5.67;4.40;;;;;;;29.08;30.66;94799.02;834875;71;29217;-75
2021/05/24 14:46:13;;;;;;;6.23;4.50;;;;;;;28.71;31.92;94798.53;828506;71;31482;-77
2021/05/24 15:01:56;;;;;;;5.00;4.50;;;;;;;28.23;33.22;94771.44;834052;71;30912;-77
2021/05/24 15:16:08;;;;;;;5.97;4.17;;;;;;;28.11;32.78;94762.63;828493;71;30160;-78
2021/05/24 15:31:08;;;;;;;4.80;4.30;;;;;;;27.75;33.10;94761.41;828403;71;30116;-78
2021/05/24 15:46:08;;;;;;;6.47;5.03;;;;;;;27.40;33.88;94207.86;834714;71;28715;-78
2021/05/24 16:01:08;;;;;;;5.30;4.67;;;;;;;;;;829091;71;30324;-76
2021/05/24 16:16:14;;;;;;;5.77;5.10;;;;;;;27.09;36.33;94757.94;827684;71;33201;-77
2021/05/24 16:31:14;;;;;;;8.00;4.87;;;;;;;26.74;36.21;94770.28;829367;71;32619;-78
2021/05/24 16:46:12;;;;;;;6.73;4.70;;;;;;;26.43;36.82;94758.88;827791;71;31486;-75
2021/05/24 17:01:09;;;;;;;9.47;4.77;;;;;;;26.17;37.63;94763.45;829203;71;29706;-78
2021/05/24 17:16:16;;;;;;;13.70;5.37;;;;;;;25.93;38.16;94777.81;827445;71;32681;-78
2021/05/24 17:31:13;;;;;;;7.20;5.87;;;;;;;25.59;42.25;94790.70;828349;71;31996;-78
2021/05/24 17:46:08;;;;;;;8.80;6.40;;;;;;;25.28;43.50;94790.70;828359;71;29778;-78
2021/05/24 18:01:09;;;;;;;7.43;6.80;;;;;;;24.93;45.07;94808.86;834261;71;29742;-77
2021/05/24 18:16:09;;;;;;;8.63;6.80;;;;;;;24.51;46.57;94811.95;828637;71;29666;-77
2021/05/24 18:31:16;;;;;;;9.93;7.80;;;;;;;24.03;48.30;94830.56;827401;71;33208;-76
2021/05/24 18:46:10;;;;;;;13.17;7.80;;;;;;;23.44;50.69;94848.37;828549;71;30319;-77
2021/05/24 19:01:16;;;;;;;8.60;7.03;;;;;;;23.15;51.64;94851.95;834074;71;32710;-79
2021/05/24 19:16:09;;;;;;;7.73;5.60;;;;;;;22.79;52.62;94859.97;828046;71;30264;-78
2021/05/24 19:31:17;;;;;;;7.63;5.50;;;;;;;22.57;54.03;94870.29;835378;71;32716;-77
2021/05/24 19:46:12;;;;;;;6.87;5.50;;;;;;;22.42;54.55;94859.69;828426;71;29758;-78
2021/05/24 20:31:17;;;;;;;5.85;4.50;;;;;;;21.99;52.89;94855.59;834300;71;33390;-77
2021/05/24 20:46:08;;;;;;;5.28;4.12;;;;;;;21.94;52.11;94845.97;828724;71;29640;-78
2021/05/24 21:01:52;;;;;;;5.65;4.60;;;;;;;22.06;52.92;94833.58;834480;71;30786;-77
2021/05/24 21:16:08;;;;;;;6.30;5.22;;;;;;;22.43;53.75;94835.84;828524;71;30149;-77
2021/05/24 21:31:12;;;;;;;6.90;5.10;;;;;;;22.51;53.78;94840.19;828145;71;31594;-75
2021/05/24 21:46:18;;;;;;;11.93;6.07;;;;;;;22.38;54.85;94834.20;829056;71;32684;-78
2021/05/24 22:01:08;;;;;;;8.45;6.40;;;;;;;22.13;56.08;94826.47;829022;71;29738;-78
2021/05/24 22:16:18;;;;;;;6.67;6.08;;;;;;;21.84;57.94;94841.19;833882;71;32782;-76
2021/05/24 22:31:14;;;;;;;8.05;6.90;;;;;;;21.43;60.17;94837.25;834537;71;32716;-78
2021/05/24 22:46:17;;;;;;;8.68;6.35;;;;;;;21.16;61.40;94846.36;827987;71;32695;-77
2021/05/24 23:01:09;;;;;;;7.70;6.80;;;;;;;20.98;62.53;94849.94;833989;71;30733;-77
2021/05/24 23:16:14;;;;;;;7.80;7.20;;;;;;;20.80;63.79;94863.64;833978;71;32759;-74
2021/05/24 23:31:09;;;;;;;8.53;7.72;;;;;;;20.68;64.21;94846.38;833810;71;30796;-76
2021/05/24 23:46:15;;;;;;;9.48;8.58;;;;;;;20.52;64.86;94849.00;827183;71;32689;-76
